Stations météo

Publicité
Rostrenen, France (7119): Température de l'air & dewpoint: 10.02.2019 08:00:00 - 16.02.2019 08:00:00 (CET)Rostrenen, France (7119): Vitesse du vent & gusts: 10.02.2019 08:00:00 - 16.02.2019 08:00:00 (CET)Rostrenen, France (7119): Direction du vent: 10.02.2019 08:00:00 - 16.02.2019 08:00:00 (CET)Rostrenen, France (7119): Quantités de précipitations: 10.02.2019 08:00:00 - 16.02.2019 08:00:00 (CET)
Date & Time tt [°C] td [°C] ff [km/h] ff [knt] fx [km/h] fx [knt] dd rr [mm]
16.02.2019 08:00:00 4,9 4,6 5 3 9 5 SSE 0,0
16.02.2019 07:00:00 4,5 4,2 5 3 11 6 S -
16.02.2019 06:00:00 4,0 3,7 4 2 11 6 WSW 0,0
16.02.2019 05:00:00 2,9 2,6 5 3 13 7 SSE 0,0
16.02.2019 04:00:00 3,6 3,2 9 5 15 8 SSW 0,0
16.02.2019 03:00:00 3,0 2,7 5 3 13 7 W 0,0
16.02.2019 02:00:00 3,2 2,8 9 5 15 8 SSW 0,0
16.02.2019 01:00:00 4,1 3,7 5 3 13 7 S -
16.02.2019 00:00:00 4,7 4,3 9 5 21 11 SSW 0,0
15.02.2019 23:00:00 5,5 5,1 9 5 16 9 SW 0,0
15.02.2019 22:00:00 6,1 5,5 11 6 22 12 SW 0,0
15.02.2019 21:00:00 6,3 5,4 13 7 21 11 S 0,0
15.02.2019 20:00:00 8,2 6,3 16 9 24 13 SSW 0,0
15.02.2019 19:00:00 9,7 5,7 15 8 18 10 SSW -
15.02.2019 18:00:00 12,7 5,8 11 6 24 13 S 0,0
15.02.2019 17:00:00 15,0 4,7 13 7 22 12 S 0,0
15.02.2019 16:00:00 16,0 5,6 11 6 24 13 S 0,0
15.02.2019 15:00:00 15,7 4,4 15 8 26 14 SSW 0,0
15.02.2019 14:00:00 15,4 6,1 11 6 22 12 S 0,0
15.02.2019 13:00:00 13,3 5,7 9 5 18 10 SSE -
15.02.2019 12:00:00 11,3 5,4 9 5 18 10 SSE 0,0
15.02.2019 11:00:00 9,4 4,6 9 5 16 9 SSE 0,0
15.02.2019 10:00:00 6,5 3,1 4 2 15 8 ESE 0,0
15.02.2019 09:00:00 4,5 2,4 8 4 13 7 SSE 0,0
15.02.2019 08:00:00 3,2 1,7 5 3 18 10 E 0,0
15.02.2019 07:00:00 3,5 2,3 11 6 15 8 ESE -
15.02.2019 06:00:00 3,9 2,9 8 4 13 7 ENE 0,0
15.02.2019 05:00:00 4,3 3,1 9 5 16 9 E 0,0
15.02.2019 04:00:00 4,5 3,0 8 4 13 7 ENE 0,0
15.02.2019 03:00:00 5,9 3,6 5 3 18 10 ESE 0,0
15.02.2019 02:00:00 6,3 3,8 11 6 18 10 SE 0,0
15.02.2019 01:00:00 6,5 3,8 11 6 21 11 SSE -
15.02.2019 00:00:00 6,7 3,8 9 5 22 12 SSE 0,0
14.02.2019 23:00:00 6,7 3,8 11 6 18 10 SE 0,0
14.02.2019 22:00:00 7,1 3,7 9 5 21 11 SSE 0,0
14.02.2019 21:00:00 7,4 4,0 11 6 21 11 SE 0,0
14.02.2019 20:00:00 7,9 3,7 11 6 18 10 ESE 0,0
14.02.2019 19:00:00 8,9 3,9 9 5 15 8 SE -
14.02.2019 18:00:00 11,0 4,2 8 4 24 13 SSE 0,0
14.02.2019 17:00:00 12,3 4,3 11 6 26 14 SSE 0,0
14.02.2019 16:00:00 12,5 3,4 11 6 22 12 SSE 0,0
14.02.2019 15:00:00 12,8 4,0 11 6 21 11 S 0,0
14.02.2019 14:00:00 11,4 3,2 11 6 24 13 SE 0,0
14.02.2019 13:00:00 11,4 3,4 9 5 18 10 SSE -
14.02.2019 12:00:00 8,6 3,0 8 4 16 9 SE 0,0
14.02.2019 11:00:00 5,4 1,7 4 2 9 5 ENE 0,0
14.02.2019 10:00:00 3,3 1,5 5 3 11 6 E 0,0
14.02.2019 09:00:00 1,3 0,3 8 4 13 7 ESE 0,0
14.02.2019 08:00:00 1,2 0,3 8 4 11 6 ESE 0,0
14.02.2019 07:00:00 1,8 0,6 5 3 15 8 ESE -
14.02.2019 06:00:00 1,8 0,5 5 3 15 8 E 0,0
14.02.2019 05:00:00 2,5 0,7 9 5 11 6 SE 0,0
14.02.2019 04:00:00 2,3 0,8 4 2 13 7 ENE 0,0
14.02.2019 03:00:00 3,1 1,1 9 5 16 9 ESE 0,0
14.02.2019 02:00:00 3,7 1,2 11 6 15 8 SE 0,0
14.02.2019 01:00:00 3,9 1,4 9 5 18 10 SE -
14.02.2019 00:00:00 4,2 1,6 9 5 16 9 SSE 0,0
13.02.2019 23:00:00 4,6 2,0 8 4 16 9 SE 0,0
13.02.2019 22:00:00 5,0 1,8 8 4 18 10 SE 0,0
13.02.2019 21:00:00 6,2 2,3 9 5 15 8 SE 0,0
13.02.2019 20:00:00 7,2 2,3 9 5 11 6 E 0,0
13.02.2019 19:00:00 7,9 2,8 8 4 11 6 ESE -
13.02.2019 18:00:00 9,5 3,0 9 5 15 8 SE 0,0
13.02.2019 17:00:00 11,6 3,1 5 3 21 11 SSE 0,0
13.02.2019 16:00:00 11,8 3,5 11 6 22 12 SSE 0,0
13.02.2019 15:00:00 11,4 3,7 11 6 28 15 SE 0,0
13.02.2019 14:00:00 10,2 2,8 16 9 29 16 SSE 0,0
13.02.2019 13:00:00 9,5 3,5 15 8 29 16 SSE -
13.02.2019 12:00:00 8,1 3,5 18 10 34 18 SSE 0,0
13.02.2019 11:00:00 6,2 3,4 11 6 24 13 SSE 0,0
13.02.2019 10:00:00 3,9 2,6 8 4 16 9 SE 0,0
13.02.2019 09:00:00 2,8 2,2 8 4 16 9 SE 0,0
13.02.2019 08:00:00 2,4 2,0 9 5 18 10 SSE 0,0
13.02.2019 07:00:00 2,2 1,8 11 6 22 12 SSE -
13.02.2019 06:00:00 2,3 2,0 13 7 21 11 SSE 0,0
13.02.2019 05:00:00 2,4 2,1 13 7 18 10 SSE 0,0
13.02.2019 04:00:00 2,2 1,9 11 6 13 7 SE 0,0
13.02.2019 03:00:00 0,6 0,2 5 3 11 6 SE 0,0
13.02.2019 02:00:00 2,6 2,2 9 5 13 7 SSE 0,0
13.02.2019 01:00:00 3,0 2,4 4 2 11 6 SE -
13.02.2019 00:00:00 4,6 4,0 8 4 9 5 SE 0,0
12.02.2019 23:00:00 4,8 4,2 8 4 15 8 SSE 0,0
12.02.2019 22:00:00 5,3 4,4 8 4 11 6 SSE 0,0
12.02.2019 21:00:00 5,7 4,7 8 4 9 5 SSE 0,0
12.02.2019 20:00:00 6,2 4,8 8 4 11 6 S 0,0
12.02.2019 19:00:00 7,1 4,7 8 4 16 9 S -
12.02.2019 18:00:00 9,2 4,4 9 5 16 9 S 0,0
12.02.2019 17:00:00 11,1 4,5 9 5 18 10 S 0,0
12.02.2019 16:00:00 11,8 4,3 9 5 16 9 S 0,0
12.02.2019 15:00:00 12,1 3,6 5 3 16 9 SSW 0,0
12.02.2019 14:00:00 11,2 3,7 8 4 18 10 WSW 0,0
12.02.2019 13:00:00 10,7 5,0 5 3 13 7 SW -
12.02.2019 12:00:00 8,5 5,8 9 5 16 9 SSW 0,0
12.02.2019 11:00:00 6,5 4,0 5 3 9 5 SSW 0,0
12.02.2019 10:00:00 4,3 2,8 4 2 11 6 S 0,0
12.02.2019 09:00:00 2,9 2,3 4 2 8 4 S 0,0
12.02.2019 08:00:00 2,7 2,1 4 2 8 4 SSE 0,0
12.02.2019 07:00:00 2,7 2,0 5 3 8 4 SSE -
12.02.2019 06:00:00 3,2 2,5 5 3 13 7 SSW 0,0
12.02.2019 05:00:00 3,6 2,9 8 4 11 6 WSW 0,0
12.02.2019 04:00:00 3,8 3,1 4 2 8 4 S 0,0
12.02.2019 03:00:00 4,4 3,4 4 2 8 4 S 0,0
12.02.2019 02:00:00 4,5 3,6 8 4 13 7 SW 0,0
12.02.2019 01:00:00 4,3 3,4 8 4 11 6 SW -
12.02.2019 00:00:00 4,6 3,9 5 3 13 7 SSE 0,0
11.02.2019 23:00:00 5,3 4,3 4 2 8 4 SE 0,0
11.02.2019 22:00:00 5,7 4,2 4 2 8 4 SW 0,0
11.02.2019 21:00:00 6,8 4,8 4 2 8 4 NNW 0,0
11.02.2019 20:00:00 6,7 4,4 4 2 9 5 N 0,0
11.02.2019 19:00:00 7,0 4,3 8 4 18 10 N -
11.02.2019 18:00:00 8,4 5,0 5 3 18 10 N 0,0
11.02.2019 17:00:00 8,9 5,1 9 5 24 13 NNW 0,0
11.02.2019 16:00:00 9,2 4,8 13 7 35 19 NNW 0,0
11.02.2019 15:00:00 9,5 4,1 16 9 35 19 NNW 0,0
11.02.2019 14:00:00 10,1 4,5 18 10 37 20 NNW 0,0
11.02.2019 13:00:00 9,6 4,4 16 9 41 22 NW -
11.02.2019 12:00:00 8,5 4,7 15 8 34 18 NW 0,0
11.02.2019 11:00:00 7,6 5,4 11 6 26 14 WNW 0,0
11.02.2019 10:00:00 6,7 5,0 13 7 29 16 W 0,0
11.02.2019 09:00:00 5,9 4,7 16 9 34 18 W 0,0
11.02.2019 08:00:00 5,5 4,5 13 7 26 14 WNW 0,2
11.02.2019 07:00:00 5,4 3,7 16 9 29 16 W -
11.02.2019 06:00:00 5,6 3,4 11 6 28 15 WSW 0,0
11.02.2019 05:00:00 5,0 3,0 13 7 29 16 SW 0,0
11.02.2019 04:00:00 4,9 2,4 13 7 28 15 WSW 0,0
11.02.2019 03:00:00 4,3 1,7 15 8 34 18 W 0,0
11.02.2019 02:00:00 4,2 1,6 16 9 34 18 WSW 0,0
11.02.2019 01:00:00 4,2 1,6 13 7 39 21 W -
11.02.2019 00:00:00 4,3 2,2 18 10 54 29 WNW 0,2
10.02.2019 23:00:00 4,6 2,1 16 9 37 20 W 0,0
10.02.2019 22:00:00 4,9 2,3 16 9 37 20 W 0,0
10.02.2019 21:00:00 4,7 1,9 18 10 34 18 WSW 0,0
10.02.2019 20:00:00 4,9 1,6 18 10 46 25 W 0,0
10.02.2019 19:00:00 5,4 1,1 16 9 37 20 W -
10.02.2019 18:00:00 5,1 2,1 15 8 48 26 W 0,0
10.02.2019 17:00:00 4,9 2,4 13 7 74 40 W 1,0
10.02.2019 16:00:00 5,9 2,2 22 12 59 32 WNW 0,6
10.02.2019 15:00:00 8,3 2,5 28 15 63 34 WNW 0,0
10.02.2019 14:00:00 6,5 2,8 26 14 61 33 WNW 0,2
10.02.2019 13:00:00 6,9 4,2 28 15 55 30 W -
10.02.2019 12:00:00 6,2 3,4 21 11 48 26 W 0,2
10.02.2019 11:00:00 5,0 2,5 26 14 50 27 W 0,2
10.02.2019 10:00:00 4,5 2,0 18 10 67 36 W 0,2
10.02.2019 09:00:00 4,5 2,8 21 11 57 31 W 0,4
10.02.2019 08:00:00 5,9 4,2 21 11 48 26 WSW 0,2

tt = Température de l'air
td = dewpoint
ff = Vitesse du vent
fx = gusts
dd = Direction du vent
rr = Quantités de précipitations

stations d'obs. à proximité